sensor_id;sensor_type;location;lat;lon;timestamp;pressure;altitude;pressure_sealevel;temperature;humidity
69223;BME280;56514;51.816;-0.026;2023-03-20T00:03:32;101233.25;;;10.50;59.03
69223;BME280;56514;51.816;-0.026;2023-03-20T00:06:37;101235.69;;;10.39;59.10
69223;BME280;56514;51.816;-0.026;2023-03-20T00:09:43;101234.56;;;10.43;59.09
69223;BME280;56514;51.816;-0.026;2023-03-20T00:12:52;101229.50;;;10.54;58.58
69223;BME280;56514;51.816;-0.026;2023-03-20T00:16:01;101241.72;;;10.41;59.00
69223;BME280;56514;51.816;-0.026;2023-03-20T00:19:16;101250.13;;;10.62;57.35
69223;BME280;56514;51.816;-0.026;2023-03-20T00:22:23;101257.09;;;10.49;57.97
69223;BME280;56514;51.816;-0.026;2023-03-20T00:25:33;101262.38;;;10.49;58.39
69223;BME280;56514;51.816;-0.026;2023-03-20T00:28:46;101260.41;;;10.52;58.19
69223;BME280;56514;51.816;-0.026;2023-03-20T00:31:57;101257.09;;;10.49;58.25
69223;BME280;56514;51.816;-0.026;2023-03-20T00:35:17;101256.72;;;10.55;58.05
69223;BME280;56514;51.816;-0.026;2023-03-20T00:38:27;101255.69;;;10.43;58.53
69223;BME280;56514;51.816;-0.026;2023-03-20T00:41:43;101250.31;;;10.45;58.38
69223;BME280;56514;51.816;-0.026;2023-03-20T00:44:55;101244.16;;;10.44;58.69
69223;BME280;56514;51.816;-0.026;2023-03-20T00:47:44;101246.22;;;10.69;56.90
69223;BME280;56514;51.816;-0.026;2023-03-20T00:50:31;101236.84;;;10.63;57.40
69223;BME280;56514;51.816;-0.026;2023-03-20T00:53:17;101241.25;;;10.49;57.76
69223;BME280;56514;51.816;-0.026;2023-03-20T00:56:02;101235.31;;;10.45;58.17
69223;BME280;56514;51.816;-0.026;2023-03-20T00:58:47;101240.41;;;10.48;57.73
69223;BME280;56514;51.816;-0.026;2023-03-20T01:01:34;101238.63;;;10.49;58.06
69223;BME280;56514;51.816;-0.026;2023-03-20T01:04:19;101242.66;;;10.54;57.67
69223;BME280;56514;51.816;-0.026;2023-03-20T01:07:09;101242.03;;;10.51;58.04
69223;BME280;56514;51.816;-0.026;2023-03-20T01:09:56;101241.25;;;10.49;57.71
69223;BME280;56514;51.816;-0.026;2023-03-20T01:12:41;101234.31;;;10.62;57.23
69223;BME280;56514;51.816;-0.026;2023-03-20T01:15:32;101235.34;;;10.59;57.12
69223;BME280;56514;51.816;-0.026;2023-03-20T01:18:19;101240.13;;;10.53;57.37
69223;BME280;56514;51.816;-0.026;2023-03-20T01:21:05;101220.25;;;10.47;57.93
69223;BME280;56514;51.816;-0.026;2023-03-20T01:23:50;101220.44;;;10.44;58.45
69223;BME280;56514;51.816;-0.026;2023-03-20T01:26:38;101208.66;;;10.50;58.30
69223;BME280;56514;51.816;-0.026;2023-03-20T01:29:24;101214.97;;;10.47;58.05
69223;BME280;56514;51.816;-0.026;2023-03-20T01:32:16;101217.97;;;10.41;58.58
69223;BME280;56514;51.816;-0.026;2023-03-20T01:35:02;101215.06;;;10.46;59.01
69223;BME280;56514;51.816;-0.026;2023-03-20T01:37:48;101213.66;;;10.54;58.25
69223;BME280;56514;51.816;-0.026;2023-03-20T01:43:29;101203.88;;;10.56;58.28
69223;BME280;56514;51.816;-0.026;2023-03-20T01:49:08;101207.66;;;10.52;58.36
69223;BME280;56514;51.816;-0.026;2023-03-20T01:52:12;101208.19;;;10.57;57.73
69223;BME280;56514;51.816;-0.026;2023-03-20T01:54:57;101196.06;;;10.55;57.96
69223;BME280;56514;51.816;-0.026;2023-03-20T01:57:42;101203.66;;;10.45;58.48
69223;BME280;56514;51.816;-0.026;2023-03-20T02:00:29;101207.25;;;10.44;58.89
69223;BME280;56514;51.816;-0.026;2023-03-20T02:03:14;101207.75;;;10.51;58.43
69223;BME280;56514;51.816;-0.026;2023-03-20T02:06:00;101197.09;;;10.52;58.53
69223;BME280;56514;51.816;-0.026;2023-03-20T02:08:48;101190.56;;;10.44;59.09
69223;BME280;56514;51.816;-0.026;2023-03-20T02:11:33;101192.84;;;10.50;59.30
69223;BME280;56514;51.816;-0.026;2023-03-20T02:14:19;101191.59;;;10.41;59.81
69223;BME280;56514;51.816;-0.026;2023-03-20T02:17:08;101175.88;;;10.40;59.83
69223;BME280;56514;51.816;-0.026;2023-03-20T02:26:48;101174.56;;;10.47;59.54
69223;BME280;56514;51.816;-0.026;2023-03-20T02:39:31;101152.72;;;10.45;60.14
69223;BME280;56514;51.816;-0.026;2023-03-20T02:42:30;101154.50;;;10.44;60.29
69223;BME280;56514;51.816;-0.026;2023-03-20T02:58:27;101120.69;;;10.51;60.70
69223;BME280;56514;51.816;-0.026;2023-03-20T03:01:18;101128.78;;;10.62;60.66
69223;BME280;56514;51.816;-0.026;2023-03-20T03:04:10;101115.50;;;10.49;60.55
69223;BME280;56514;51.816;-0.026;2023-03-20T03:06:56;101112.38;;;10.43;60.77
69223;BME280;56514;51.816;-0.026;2023-03-20T03:10:04;101106.63;;;10.36;61.33
69223;BME280;56514;51.816;-0.026;2023-03-20T03:12:50;101118.72;;;10.40;61.18
69223;BME280;56514;51.816;-0.026;2023-03-20T03:15:40;101115.69;;;10.32;61.83
69223;BME280;56514;51.816;-0.026;2023-03-20T03:18:26;101115.78;;;10.45;61.60
69223;BME280;56514;51.816;-0.026;2023-03-20T03:21:14;101123.34;;;10.51;61.24
69223;BME280;56514;51.816;-0.026;2023-03-20T03:24:02;101119.63;;;10.39;61.66
69223;BME280;56514;51.816;-0.026;2023-03-20T03:26:47;101124.63;;;10.44;61.65
69223;BME280;56514;51.816;-0.026;2023-03-20T03:29:35;101128.13;;;10.44;62.04
69223;BME280;56514;51.816;-0.026;2023-03-20T03:32:34;101128.22;;;10.43;62.29
69223;BME280;56514;51.816;-0.026;2023-03-20T03:35:21;101124.06;;;10.53;61.78
69223;BME280;56514;51.816;-0.026;2023-03-20T03:47:28;101110.25;;;10.49;62.17
69223;BME280;56514;51.816;-0.026;2023-03-20T03:50:28;101107.94;;;10.57;61.98
69223;BME280;56514;51.816;-0.026;2023-03-20T03:53:24;101108.41;;;10.50;62.65
69223;BME280;56514;51.816;-0.026;2023-03-20T03:56:13;101104.47;;;10.43;63.23
69223;BME280;56514;51.816;-0.026;2023-03-20T03:59:03;101103.72;;;10.41;63.25
69223;BME280;56514;51.816;-0.026;2023-03-20T04:01:53;101096.38;;;10.46;63.48
69223;BME280;56514;51.816;-0.026;2023-03-20T04:04:42;101101.84;;;10.57;63.01
69223;BME280;56514;51.816;-0.026;2023-03-20T04:07:29;101108.22;;;10.53;63.41
69223;BME280;56514;51.816;-0.026;2023-03-20T04:10:14;101099.97;;;10.45;63.71
69223;BME280;56514;51.816;-0.026;2023-03-20T04:12:59;101098.16;;;10.45;63.68
69223;BME280;56514;51.816;-0.026;2023-03-20T04:15:44;101086.69;;;10.46;63.57
69223;BME280;56514;51.816;-0.026;2023-03-20T04:18:29;101087.72;;;10.58;63.24
69223;BME280;56514;51.816;-0.026;2023-03-20T04:21:14;101088.19;;;10.64;62.63
69223;BME280;56514;51.816;-0.026;2023-03-20T04:24:00;101094.75;;;10.57;62.99
69223;BME280;56514;51.816;-0.026;2023-03-20T04:26:45;101091.50;;;10.54;63.11
69223;BME280;56514;51.816;-0.026;2023-03-20T04:29:30;101089.75;;;10.67;62.41
69223;BME280;56514;51.816;-0.026;2023-03-20T04:32:15;101078.94;;;10.57;62.89
69223;BME280;56514;51.816;-0.026;2023-03-20T04:34:59;101080.84;;;10.55;63.13
69223;BME280;56514;51.816;-0.026;2023-03-20T04:37:44;101076.00;;;10.76;62.46
69223;BME280;56514;51.816;-0.026;2023-03-20T04:40:30;101076.28;;;10.72;62.20
69223;BME280;56514;51.816;-0.026;2023-03-20T04:43:15;101081.75;;;10.68;62.71
69223;BME280;56514;51.816;-0.026;2023-03-20T04:46:00;101075.56;;;10.70;62.70
69223;BME280;56514;51.816;-0.026;2023-03-20T04:48:45;101075.91;;;10.78;62.17
69223;BME280;56514;51.816;-0.026;2023-03-20T04:51:29;101083.09;;;10.76;62.19
69223;BME280;56514;51.816;-0.026;2023-03-20T04:54:14;101071.47;;;10.78;61.82
69223;BME280;56514;51.816;-0.026;2023-03-20T04:57:00;101075.16;;;10.76;62.03
69223;BME280;56514;51.816;-0.026;2023-03-20T04:59:44;101070.53;;;10.79;61.92
69223;BME280;56514;51.816;-0.026;2023-03-20T05:02:29;101067.06;;;10.79;62.21
69223;BME280;56514;51.816;-0.026;2023-03-20T05:05:14;101072.47;;;10.90;62.00
69223;BME280;56514;51.816;-0.026;2023-03-20T05:08:00;101064.91;;;10.71;62.71
69223;BME280;56514;51.816;-0.026;2023-03-20T05:10:44;101063.28;;;10.83;62.50
69223;BME280;56514;51.816;-0.026;2023-03-20T05:13:30;101068.25;;;10.87;62.33
69223;BME280;56514;51.816;-0.026;2023-03-20T05:16:15;101066.19;;;10.78;63.44
69223;BME280;56514;51.816;-0.026;2023-03-20T05:19:00;101051.66;;;10.85;63.01
69223;BME280;56514;51.816;-0.026;2023-03-20T05:21:45;101064.31;;;10.80;63.55
69223;BME280;56514;51.816;-0.026;2023-03-20T05:24:30;101054.16;;;10.74;63.93
69223;BME280;56514;51.816;-0.026;2023-03-20T05:27:16;101067.25;;;10.76;64.39
69223;BME280;56514;51.816;-0.026;2023-03-20T05:30:01;101066.75;;;10.83;64.09
69223;BME280;56514;51.816;-0.026;2023-03-20T05:32:50;101066.66;;;10.85;64.45
69223;BME280;56514;51.816;-0.026;2023-03-20T05:35:35;101067.97;;;10.78;64.56
69223;BME280;56514;51.816;-0.026;2023-03-20T05:38:21;101067.31;;;10.88;64.65
69223;BME280;56514;51.816;-0.026;2023-03-20T05:41:06;101071.09;;;10.84;64.67
69223;BME280;56514;51.816;-0.026;2023-03-20T05:43:51;101054.59;;;10.81;65.26
69223;BME280;56514;51.816;-0.026;2023-03-20T05:46:35;101066.09;;;10.80;65.07
69223;BME280;56514;51.816;-0.026;2023-03-20T05:49:21;101055.84;;;10.75;65.19
69223;BME280;56514;51.816;-0.026;2023-03-20T05:52:06;101063.16;;;10.84;65.32
69223;BME280;56514;51.816;-0.026;2023-03-20T05:54:51;101070.34;;;10.82;65.80
69223;BME280;56514;51.816;-0.026;2023-03-20T05:57:35;101065.44;;;10.76;66.15
69223;BME280;56514;51.816;-0.026;2023-03-20T06:00:20;101076.75;;;10.78;66.54
69223;BME280;56514;51.816;-0.026;2023-03-20T06:03:05;101073.34;;;10.90;66.27
69223;BME280;56514;51.816;-0.026;2023-03-20T06:05:50;101067.97;;;10.92;66.96
69223;BME280;56514;51.816;-0.026;2023-03-20T06:08:36;101074.19;;;10.91;66.92
69223;BME280;56514;51.816;-0.026;2023-03-20T06:11:20;101085.78;;;10.88;67.46
69223;BME280;56514;51.816;-0.026;2023-03-20T06:14:05;101074.69;;;10.83;67.29
69223;BME280;56514;51.816;-0.026;2023-03-20T06:16:50;101071.47;;;10.78;68.12
69223;BME280;56514;51.816;-0.026;2023-03-20T06:19:37;101075.31;;;10.87;67.98
69223;BME280;56514;51.816;-0.026;2023-03-20T06:22:23;101078.06;;;10.85;68.71
69223;BME280;56514;51.816;-0.026;2023-03-20T06:25:08;101085.25;;;10.83;68.35
69223;BME280;56514;51.816;-0.026;2023-03-20T06:27:54;101082.59;;;10.83;68.90
69223;BME280;56514;51.816;-0.026;2023-03-20T06:30:39;101087.94;;;10.96;68.50
69223;BME280;56514;51.816;-0.026;2023-03-20T06:33:24;101078.69;;;11.03;68.40
69223;BME280;56514;51.816;-0.026;2023-03-20T06:36:10;101072.78;;;10.85;69.26
69223;BME280;56514;51.816;-0.026;2023-03-20T06:38:55;101085.69;;;10.90;69.47
69223;BME280;56514;51.816;-0.026;2023-03-20T06:41:41;101084.00;;;10.89;69.41
69223;BME280;56514;51.816;-0.026;2023-03-20T06:44:26;101085.03;;;10.86;69.38
69223;BME280;56514;51.816;-0.026;2023-03-20T06:47:11;101086.03;;;10.98;69.42
69223;BME280;56514;51.816;-0.026;2023-03-20T06:49:56;101096.22;;;11.04;69.75
69223;BME280;56514;51.816;-0.026;2023-03-20T06:52:41;101081.59;;;11.12;69.49
69223;BME280;56514;51.816;-0.026;2023-03-20T06:55:26;101093.66;;;11.02;69.91
69223;BME280;56514;51.816;-0.026;2023-03-20T06:58:11;101092.72;;;11.03;70.07
69223;BME280;56514;51.816;-0.026;2023-03-20T07:00:56;101089.13;;;11.18;69.87
69223;BME280;56514;51.816;-0.026;2023-03-20T07:03:40;101097.28;;;11.01;70.74
69223;BME280;56514;51.816;-0.026;2023-03-20T07:06:26;101088.50;;;11.01;70.79
69223;BME280;56514;51.816;-0.026;2023-03-20T07:09:11;101089.97;;;11.05;71.23
69223;BME280;56514;51.816;-0.026;2023-03-20T07:11:57;101088.56;;;11.13;70.86
69223;BME280;56514;51.816;-0.026;2023-03-20T07:14:42;101094.22;;;11.07;71.18
69223;BME280;56514;51.816;-0.026;2023-03-20T07:17:27;101087.81;;;11.11;71.08
69223;BME280;56514;51.816;-0.026;2023-03-20T07:20:13;101076.53;;;11.22;71.23
69223;BME280;56514;51.816;-0.026;2023-03-20T07:22:58;101086.72;;;11.28;70.70
69223;BME280;56514;51.816;-0.026;2023-03-20T07:25:43;101082.09;;;11.31;70.63
69223;BME280;56514;51.816;-0.026;2023-03-20T07:28:30;101090.09;;;11.30;70.81
69223;BME280;56514;51.816;-0.026;2023-03-20T07:31:23;101085.81;;;11.41;70.38
69223;BME280;56514;51.816;-0.026;2023-03-20T07:34:09;101085.28;;;11.36;70.92
69223;BME280;56514;51.816;-0.026;2023-03-20T07:36:55;101082.44;;;11.39;70.82
69223;BME280;56514;51.816;-0.026;2023-03-20T07:39:40;101081.19;;;11.45;71.07
69223;BME280;56514;51.816;-0.026;2023-03-20T07:42:25;101082.63;;;11.36;71.25
69223;BME280;56514;51.816;-0.026;2023-03-20T07:45:10;101083.34;;;11.38;71.69
69223;BME280;56514;51.816;-0.026;2023-03-20T07:47:55;101078.31;;;11.48;71.61
69223;BME280;56514;51.816;-0.026;2023-03-20T07:50:40;101074.97;;;11.58;71.19
69223;BME280;56514;51.816;-0.026;2023-03-20T07:53:25;101075.84;;;11.59;71.57
69223;BME280;56514;51.816;-0.026;2023-03-20T07:56:10;101077.25;;;11.64;71.37
69223;BME280;56514;51.816;-0.026;2023-03-20T07:58:54;101077.59;;;11.72;71.20
69223;BME280;56514;51.816;-0.026;2023-03-20T08:01:39;101079.47;;;11.70;71.77
69223;BME280;56514;51.816;-0.026;2023-03-20T08:04:24;101076.75;;;11.84;71.30
69223;BME280;56514;51.816;-0.026;2023-03-20T08:07:10;101081.19;;;11.84;71.40
69223;BME280;56514;51.816;-0.026;2023-03-20T08:09:56;101084.91;;;11.94;70.82
69223;BME280;56514;51.816;-0.026;2023-03-20T08:12:43;101085.03;;;11.92;71.22
69223;BME280;56514;51.816;-0.026;2023-03-20T08:15:31;101087.16;;;12.12;70.60
69223;BME280;56514;51.816;-0.026;2023-03-20T08:18:16;101084.59;;;11.98;71.05
69223;BME280;56514;51.816;-0.026;2023-03-20T08:21:04;101084.19;;;12.04;70.97
69223;BME280;56514;51.816;-0.026;2023-03-20T08:23:49;101080.78;;;12.02;71.09
69223;BME280;56514;51.816;-0.026;2023-03-20T08:26:34;101076.59;;;12.12;71.40
69223;BME280;56514;51.816;-0.026;2023-03-20T08:29:19;101083.03;;;12.21;71.04
69223;BME280;56514;51.816;-0.026;2023-03-20T08:32:05;101072.78;;;12.29;70.80
69223;BME280;56514;51.816;-0.026;2023-03-20T08:34:50;101074.34;;;12.31;70.69
69223;BME280;56514;51.816;-0.026;2023-03-20T08:37:36;101066.31;;;12.46;70.75
69223;BME280;56514;51.816;-0.026;2023-03-20T08:40:22;101070.19;;;12.53;70.48
69223;BME280;56514;51.816;-0.026;2023-03-20T08:43:07;101065.53;;;12.69;70.53
69223;BME280;56514;51.816;-0.026;2023-03-20T08:45:52;101074.56;;;12.90;69.30
69223;BME280;56514;51.816;-0.026;2023-03-20T08:48:38;101086.75;;;12.92;69.65
69223;BME280;56514;51.816;-0.026;2023-03-20T08:51:24;101083.03;;;12.95;69.41
69223;BME280;56514;51.816;-0.026;2023-03-20T08:54:09;101090.47;;;12.90;69.51
69223;BME280;56514;51.816;-0.026;2023-03-20T08:56:54;101092.66;;;12.96;69.39
69223;BME280;56514;51.816;-0.026;2023-03-20T08:59:39;101090.69;;;12.87;70.33
69223;BME280;56514;51.816;-0.026;2023-03-20T09:02:25;101087.47;;;12.94;69.90
69223;BME280;56514;51.816;-0.026;2023-03-20T09:05:10;101093.00;;;13.04;69.11
69223;BME280;56514;51.816;-0.026;2023-03-20T09:07:55;101095.09;;;12.99;69.38
69223;BME280;56514;51.816;-0.026;2023-03-20T09:10:40;101098.19;;;12.93;69.31
69223;BME280;56514;51.816;-0.026;2023-03-20T09:13:25;101096.28;;;12.95;69.57
69223;BME280;56514;51.816;-0.026;2023-03-20T09:16:11;101100.63;;;12.83;70.29
69223;BME280;56514;51.816;-0.026;2023-03-20T09:18:56;101109.84;;;12.90;70.17
69223;BME280;56514;51.816;-0.026;2023-03-20T09:21:41;101105.06;;;13.08;69.70
69223;BME280;56514;51.816;-0.026;2023-03-20T09:24:26;101094.56;;;13.06;69.41
69223;BME280;56514;51.816;-0.026;2023-03-20T09:27:13;101092.03;;;13.05;69.91
69223;BME280;56514;51.816;-0.026;2023-03-20T09:29:57;101088.91;;;13.23;69.47
69223;BME280;56514;51.816;-0.026;2023-03-20T09:32:42;101095.06;;;13.24;69.79
69223;BME280;56514;51.816;-0.026;2023-03-20T09:35:31;101103.47;;;13.18;70.04
69223;BME280;56514;51.816;-0.026;2023-03-20T09:38:16;101096.28;;;13.31;69.69
69223;BME280;56514;51.816;-0.026;2023-03-20T09:41:04;101106.22;;;13.40;69.57
69223;BME280;56514;51.816;-0.026;2023-03-20T09:43:53;101097.94;;;13.44;69.08
69223;BME280;56514;51.816;-0.026;2023-03-20T09:53:22;101094.69;;;13.52;69.61
69223;BME280;56514;51.816;-0.026;2023-03-20T09:56:15;101101.75;;;13.64;69.37
69223;BME280;56514;51.816;-0.026;2023-03-20T09:59:05;101101.06;;;13.73;69.08
69223;BME280;56514;51.816;-0.026;2023-03-20T10:01:57;101096.50;;;13.75;69.04
69223;BME280;56514;51.816;-0.026;2023-03-20T10:04:46;101094.88;;;13.96;68.62
69223;BME280;56514;51.816;-0.026;2023-03-20T10:07:32;101088.09;;;14.27;67.74
69223;BME280;56514;51.816;-0.026;2023-03-20T10:10:17;101088.00;;;14.39;67.22
69223;BME280;56514;51.816;-0.026;2023-03-20T10:13:11;101082.34;;;14.66;67.02
69223;BME280;56514;51.816;-0.026;2023-03-20T10:19:30;101087.44;;;15.22;64.56
69223;BME280;56514;51.816;-0.026;2023-03-20T10:22:21;101073.25;;;15.33;64.51
69223;BME280;56514;51.816;-0.026;2023-03-20T10:25:35;101065.50;;;15.72;63.79
69223;BME280;56514;51.816;-0.026;2023-03-20T10:28:45;101065.00;;;16.20;62.20
69223;BME280;56514;51.816;-0.026;2023-03-20T10:31:56;101068.88;;;16.36;61.25
69223;BME280;56514;51.816;-0.026;2023-03-20T10:40:40;101068.78;;;15.97;61.45
69223;BME280;56514;51.816;-0.026;2023-03-20T10:43:29;101069.94;;;16.04;61.58
69223;BME280;56514;51.816;-0.026;2023-03-20T10:46:21;101064.16;;;15.99;62.29
69223;BME280;56514;51.816;-0.026;2023-03-20T10:49:41;101056.31;;;16.18;62.15
69223;BME280;56514;51.816;-0.026;2023-03-20T10:52:28;101056.16;;;16.70;60.33
69223;BME280;56514;51.816;-0.026;2023-03-20T10:55:20;101062.09;;;16.83;59.38
69223;BME280;56514;51.816;-0.026;2023-03-20T10:58:27;101053.09;;;16.74;59.48
69223;BME280;56514;51.816;-0.026;2023-03-20T11:01:14;101066.47;;;16.54;59.89
69223;BME280;56514;51.816;-0.026;2023-03-20T11:03:59;101060.72;;;16.28;61.28
69223;BME280;56514;51.816;-0.026;2023-03-20T11:07:01;101052.75;;;16.58;60.70
69223;BME280;56514;51.816;-0.026;2023-03-20T11:12:51;101058.22;;;17.06;58.99
69223;BME280;56514;51.816;-0.026;2023-03-20T11:15:36;101054.16;;;17.02;58.81
69223;BME280;56514;51.816;-0.026;2023-03-20T11:18:24;101057.06;;;16.89;58.99
69223;BME280;56514;51.816;-0.026;2023-03-20T11:21:17;101063.81;;;16.54;60.25
69223;BME280;56514;51.816;-0.026;2023-03-20T11:24:21;101064.13;;;16.40;60.76
69223;BME280;56514;51.816;-0.026;2023-03-20T11:27:14;101064.81;;;16.12;62.12
69223;BME280;56514;51.816;-0.026;2023-03-20T11:30:03;101068.00;;;16.06;62.22
69223;BME280;56514;51.816;-0.026;2023-03-20T11:32:53;101074.75;;;16.10;62.17
69223;BME280;56514;51.816;-0.026;2023-03-20T11:35:44;101070.75;;;16.25;61.97
69223;BME280;56514;51.816;-0.026;2023-03-20T11:38:30;101063.44;;;16.17;61.85
69223;BME280;56514;51.816;-0.026;2023-03-20T11:41:23;101062.91;;;16.23;61.77
69223;BME280;56514;51.816;-0.026;2023-03-20T11:44:38;101058.84;;;15.99;62.45
69223;BME280;56514;51.816;-0.026;2023-03-20T11:47:26;101067.81;;;15.98;63.08
69223;BME280;56514;51.816;-0.026;2023-03-20T11:50:31;101064.22;;;16.08;63.16
69223;BME280;56514;51.816;-0.026;2023-03-20T11:53:22;101067.09;;;16.16;61.64
69223;BME280;56514;51.816;-0.026;2023-03-20T11:56:11;101063.63;;;16.05;62.81
69223;BME280;56514;51.816;-0.026;2023-03-20T11:59:09;101064.63;;;16.04;62.16
69223;BME280;56514;51.816;-0.026;2023-03-20T12:01:57;101059.63;;;15.90;62.86
69223;BME280;56514;51.816;-0.026;2023-03-20T12:04:42;101055.28;;;15.89;62.82
69223;BME280;56514;51.816;-0.026;2023-03-20T12:07:35;101057.28;;;15.96;63.21
69223;BME280;56514;51.816;-0.026;2023-03-20T12:10:22;101055.59;;;16.16;62.92
69223;BME280;56514;51.816;-0.026;2023-03-20T12:13:16;101060.25;;;16.44;61.41
69223;BME280;56514;51.816;-0.026;2023-03-20T12:16:11;101058.53;;;16.43;61.76
69223;BME280;56514;51.816;-0.026;2023-03-20T12:19:05;101054.06;;;16.43;61.41
69223;BME280;56514;51.816;-0.026;2023-03-20T12:22:02;101055.50;;;16.27;61.79
69223;BME280;56514;51.816;-0.026;2023-03-20T12:24:57;101054.44;;;16.09;62.29
69223;BME280;56514;51.816;-0.026;2023-03-20T12:27:55;101060.53;;;16.00;62.75
69223;BME280;56514;51.816;-0.026;2023-03-20T12:33:58;101055.81;;;15.82;63.40
69223;BME280;56514;51.816;-0.026;2023-03-20T12:36:47;101048.13;;;15.68;64.28
69223;BME280;56514;51.816;-0.026;2023-03-20T12:39:35;101041.53;;;15.63;64.28
69223;BME280;56514;51.816;-0.026;2023-03-20T12:43:04;101046.13;;;15.61;65.22
69223;BME280;56514;51.816;-0.026;2023-03-20T12:46:13;101051.22;;;15.85;63.80
69223;BME280;56514;51.816;-0.026;2023-03-20T12:52:43;101037.84;;;15.75;64.72
69223;BME280;56514;51.816;-0.026;2023-03-20T13:01:47;101023.56;;;15.97;63.98
69223;BME280;56514;51.816;-0.026;2023-03-20T13:10:24;101020.78;;;16.28;63.11
69223;BME280;56514;51.816;-0.026;2023-03-20T13:16:37;101019.97;;;16.37;62.67
69223;BME280;56514;51.816;-0.026;2023-03-20T13:22:31;101017.94;;;16.50;62.04
69223;BME280;56514;51.816;-0.026;2023-03-20T13:37:50;100990.91;;;16.25;62.58
69223;BME280;56514;51.816;-0.026;2023-03-20T13:40:40;100988.44;;;16.33;62.69
69223;BME280;56514;51.816;-0.026;2023-03-20T13:43:38;100984.63;;;16.56;62.26
69223;BME280;56514;51.816;-0.026;2023-03-20T13:49:35;100991.66;;;16.66;61.38
69223;BME280;56514;51.816;-0.026;2023-03-20T13:52:28;100986.28;;;16.57;61.81
69223;BME280;56514;51.816;-0.026;2023-03-20T14:01:49;100995.56;;;16.02;64.04
69223;BME280;56514;51.816;-0.026;2023-03-20T14:04:37;101002.88;;;16.10;63.54
69223;BME280;56514;51.816;-0.026;2023-03-20T14:07:34;100992.44;;;16.18;64.17
69223;BME280;56514;51.816;-0.026;2023-03-20T14:13:14;100995.63;;;16.12;63.41
69223;BME280;56514;51.816;-0.026;2023-03-20T14:16:04;100999.47;;;15.98;63.66
69223;BME280;56514;51.816;-0.026;2023-03-20T14:19:17;100995.47;;;15.83;63.81
69223;BME280;56514;51.816;-0.026;2023-03-20T14:22:04;100993.44;;;15.75;64.48
69223;BME280;56514;51.816;-0.026;2023-03-20T14:27:56;100988.63;;;15.69;64.19
69223;BME280;56514;51.816;-0.026;2023-03-20T14:30:48;100988.38;;;15.72;64.34
69223;BME280;56514;51.816;-0.026;2023-03-20T14:33:42;100975.88;;;15.84;64.47
69223;BME280;56514;51.816;-0.026;2023-03-20T14:42:57;100968.69;;;16.05;64.08
69223;BME280;56514;51.816;-0.026;2023-03-20T14:45:53;100968.88;;;16.13;63.12
69223;BME280;56514;51.816;-0.026;2023-03-20T14:48:49;100972.00;;;16.28;62.84
69223;BME280;56514;51.816;-0.026;2023-03-20T14:51:43;100965.72;;;16.38;62.61
69223;BME280;56514;51.816;-0.026;2023-03-20T14:54:30;100971.63;;;16.42;62.71
69223;BME280;56514;51.816;-0.026;2023-03-20T14:57:19;100965.19;;;16.35;62.58
69223;BME280;56514;51.816;-0.026;2023-03-20T15:00:32;100968.19;;;16.21;63.76
69223;BME280;56514;51.816;-0.026;2023-03-20T15:03:17;100970.88;;;16.21;63.51
69223;BME280;56514;51.816;-0.026;2023-03-20T15:06:05;100970.09;;;16.09;64.28
69223;BME280;56514;51.816;-0.026;2023-03-20T15:08:58;100959.44;;;16.00;65.14
69223;BME280;56514;51.816;-0.026;2023-03-20T15:11:45;100960.25;;;16.00;65.14
69223;BME280;56514;51.816;-0.026;2023-03-20T15:14:35;100962.09;;;16.00;65.42
69223;BME280;56514;51.816;-0.026;2023-03-20T15:17:24;100969.44;;;15.87;65.79
69223;BME280;56514;51.816;-0.026;2023-03-20T15:20:15;100964.56;;;15.71;66.22
69223;BME280;56514;51.816;-0.026;2023-03-20T15:23:01;100956.16;;;15.66;66.73
69223;BME280;56514;51.816;-0.026;2023-03-20T15:25:48;100965.75;;;15.57;67.55
69223;BME280;56514;51.816;-0.026;2023-03-20T15:28:36;100960.16;;;15.60;67.43
69223;BME280;56514;51.816;-0.026;2023-03-20T15:31:26;100956.94;;;15.57;67.34
69223;BME280;56514;51.816;-0.026;2023-03-20T15:34:19;100955.56;;;15.62;67.42
69223;BME280;56514;51.816;-0.026;2023-03-20T15:37:06;100957.06;;;15.55;67.62
69223;BME280;56514;51.816;-0.026;2023-03-20T15:39:53;100952.28;;;15.49;67.64
69223;BME280;56514;51.816;-0.026;2023-03-20T15:42:39;100952.06;;;15.41;67.89
69223;BME280;56514;51.816;-0.026;2023-03-20T15:45:33;100951.75;;;15.24;68.30
69223;BME280;56514;51.816;-0.026;2023-03-20T15:48:22;100959.47;;;15.27;68.94
69223;BME280;56514;51.816;-0.026;2023-03-20T15:51:10;100951.00;;;15.01;69.88
69223;BME280;56514;51.816;-0.026;2023-03-20T15:53:55;100952.53;;;14.83;69.82
69223;BME280;56514;51.816;-0.026;2023-03-20T15:56:43;100951.34;;;14.76;70.84
69223;BME280;56514;51.816;-0.026;2023-03-20T15:59:32;100949.06;;;14.72;71.32
69223;BME280;56514;51.816;-0.026;2023-03-20T16:02:18;100953.91;;;14.67;71.72
69223;BME280;56514;51.816;-0.026;2023-03-20T16:05:09;100947.38;;;14.60;72.16
69223;BME280;56514;51.816;-0.026;2023-03-20T16:07:56;100936.44;;;14.53;72.72
69223;BME280;56514;51.816;-0.026;2023-03-20T16:10:42;100941.25;;;14.59;72.55
69223;BME280;56514;51.816;-0.026;2023-03-20T16:13:37;100944.97;;;14.57;72.88
69223;BME280;56514;51.816;-0.026;2023-03-20T16:16:23;100940.25;;;14.71;72.49
69223;BME280;56514;51.816;-0.026;2023-03-20T16:19:11;100934.22;;;14.69;72.56
69223;BME280;56514;51.816;-0.026;2023-03-20T16:22:00;100938.44;;;14.72;72.17
69223;BME280;56514;51.816;-0.026;2023-03-20T16:24:49;100940.38;;;14.70;72.01
69223;BME280;56514;51.816;-0.026;2023-03-20T16:27:35;100943.66;;;14.62;72.69
69223;BME280;56514;51.816;-0.026;2023-03-20T16:30:29;100938.13;;;14.54;73.04
69223;BME280;56514;51.816;-0.026;2023-03-20T16:33:16;100942.69;;;14.52;72.73
69223;BME280;56514;51.816;-0.026;2023-03-20T16:36:03;100944.91;;;14.47;73.26
69223;BME280;56514;51.816;-0.026;2023-03-20T16:44:43;100946.09;;;14.43;72.50
69223;BME280;56514;51.816;-0.026;2023-03-20T16:47:35;100938.16;;;14.32;72.65